Time;durP1;ratioP1;P1;durP2;ratioP2;P2;SDS_P1;SDS_P2;PMS_P1;PMS_P2;Temp;Humidity;BMP_temperature;BMP_pressure;BME280_temperature;BME280_humidity;BME280_pressure;Samples;Min_cycle;Max_cycle;Signal;HPM_P1;HPM_P2
2022/10/05 00:00:37;;;;;;;18.70;9.70;;;;;;;;;;5155727;27;20448;-73
2022/10/05 00:03:10;;;;;;;17.77;9.80;;;;;;;;;;5155692;27;20443;-73
2022/10/05 00:05:38;;;;;;;17.53;9.90;;;;;;;;;;5155331;27;20819;-73
2022/10/05 00:08:12;;;;;;;13.90;9.70;;;;;;;;;;5155594;27;20440;-73
2022/10/05 00:10:41;;;;;;;15.10;8.60;;;;;;;;;;5155348;27;20451;-73
2022/10/05 00:13:12;;;;;;;8.90;7.03;;;;;;;;;;5155583;27;20443;-73
2022/10/05 00:15:39;;;;;;;14.37;7.87;;;;;;;;;;5154971;27;20482;-73
2022/10/05 00:18:10;;;;;;;10.77;7.40;;;;;;;;;;5154504;27;20509;-73
2022/10/05 00:20:41;;;;;;;10.03;7.20;;;;;;;;;;5154724;27;20460;-73
2022/10/05 00:23:08;;;;;;;11.40;7.40;;;;;;;;;;5155504;27;20463;-73
2022/10/05 00:25:35;;;;;;;12.37;7.93;;;;;;;;;;5155034;27;20510;-73
2022/10/05 00:28:03;;;;;;;13.30;8.07;;;;;;;;;;5155111;27;20782;-73
2022/10/05 00:30:33;;;;;;;12.47;7.63;;;;;;;;;;5154990;27;20462;-73
2022/10/05 00:33:00;;;;;;;12.50;8.43;;;;;;;;;;5155571;27;20444;-72
2022/10/05 00:35:29;;;;;;;11.80;7.40;;;;;;;;;;5154669;27;20978;-73
2022/10/05 00:37:58;;;;;;;11.70;8.00;;;;;;;;;;5155254;27;20861;-73
2022/10/05 00:40:30;;;;;;;9.50;7.50;;;;;;;;;;5154816;27;20937;-73
2022/10/05 00:43:03;;;;;;;12.10;7.23;;;;;;;;;;5154744;27;20452;-73
2022/10/05 00:45:31;;;;;;;13.23;8.57;;;;;;;;;;5154590;27;20477;-73
2022/10/05 00:48:02;;;;;;;10.87;7.47;;;;;;;;;;5154797;27;20451;-73
2022/10/05 00:50:46;;;;;;;10.57;7.53;;;;;;;;;;5154668;27;20474;-73
2022/10/05 00:53:18;;;;;;;12.47;7.90;;;;;;;;;;5154851;27;20456;-73
2022/10/05 00:55:53;;;;;;;13.63;7.87;;;;;;;;;;5154494;27;20478;-73
2022/10/05 00:58:26;;;;;;;14.00;8.93;;;;;;;;;;5154640;27;20486;-73
2022/10/05 01:00:59;;;;;;;11.60;6.60;;;;;;;;;;5154680;27;20448;-73
2022/10/05 01:03:30;;;;;;;13.27;8.07;;;;;;;;;;5154523;27;20450;-73
2022/10/05 01:06:03;;;;;;;9.80;6.93;;;;;;;;;;5154628;27;21002;-73
2022/10/05 01:08:36;;;;;;;14.70;7.20;;;;;;;;;;5154561;27;20447;-73
2022/10/05 01:11:07;;;;;;;12.60;7.70;;;;;;;;;;5154499;27;20466;-73
2022/10/05 01:13:42;;;;;;;9.70;7.03;;;;;;;;;;5154338;27;20869;-73
2022/10/05 01:16:12;;;;;;;13.43;7.60;;;;;;;;;;5154479;27;20486;-73
2022/10/05 01:18:44;;;;;;;10.80;7.13;;;;;;;;;;5154328;27;20487;-73
2022/10/05 01:21:15;;;;;;;10.93;6.37;;;;;;;;;;5154045;27;20447;-73
2022/10/05 01:23:56;;;;;;;14.03;7.80;;;;;;;;;;5154361;27;20454;-73
2022/10/05 01:26:37;;;;;;;7.90;6.70;;;;;;;;;;5154221;27;20463;-73
2022/10/05 01:29:07;;;;;;;12.70;7.83;;;;;;;;;;5157536;27;20451;-73
2022/10/05 01:31:37;;;;;;;10.27;8.10;;;;;;;;;;5158913;27;20465;-73
2022/10/05 01:34:08;;;;;;;9.57;7.53;;;;;;;;;;5158903;27;20937;-73
2022/10/05 01:36:40;;;;;;;10.50;7.07;;;;;;;;;;5158588;27;20462;-73
2022/10/05 01:39:11;;;;;;;11.37;8.07;;;;;;;;;;5158624;27;20442;-73
2022/10/05 01:41:41;;;;;;;14.90;7.30;;;;;;;;;;5158490;27;20452;-73
2022/10/05 01:44:12;;;;;;;10.40;7.50;;;;;;;;;;5157764;27;20448;-73
2022/10/05 01:46:42;;;;;;;24.70;16.90;;;;;;;;;;5158208;27;20784;-73
2022/10/05 01:49:18;;;;;;;19.53;9.57;;;;;;;;;;5158393;27;20449;-74
2022/10/05 01:51:49;;;;;;;9.43;7.67;;;;;;;;;;5158465;27;20871;-73
2022/10/05 01:54:23;;;;;;;13.10;7.27;;;;;;;;;;5157974;27;20825;-73
2022/10/05 01:56:53;;;;;;;19.53;8.40;;;;;;;;;;5158145;27;20955;-73
2022/10/05 01:59:26;;;;;;;7.83;7.03;;;;;;;;;;5158044;27;20448;-73
2022/10/05 02:01:57;;;;;;;10.97;8.10;;;;;;;;;;5158004;27;20444;-73
2022/10/05 02:04:27;;;;;;;21.00;10.40;;;;;;;;;;5157675;27;20481;-73
2022/10/05 02:06:55;;;;;;;32.63;19.83;;;;;;;;;;5158007;27;20459;-73
2022/10/05 02:09:25;;;;;;;20.03;14.23;;;;;;;;;;5157979;27;20452;-73
2022/10/05 02:11:55;;;;;;;18.17;11.80;;;;;;;;;;5157766;27;20452;-73
2022/10/05 02:14:26;;;;;;;16.30;9.87;;;;;;;;;;5157350;27;20452;-73
2022/10/05 02:16:55;;;;;;;19.63;10.70;;;;;;;;;;5157857;27;20448;-73
2022/10/05 02:19:22;;;;;;;18.10;11.33;;;;;;;;;;5157104;27;20447;-73
2022/10/05 02:21:52;;;;;;;16.63;11.07;;;;;;;;;;5157696;27;20474;-73
2022/10/05 02:24:22;;;;;;;17.53;10.97;;;;;;;;;;5157301;27;20457;-73
2022/10/05 02:26:50;;;;;;;22.20;11.47;;;;;;;;;;5157507;27;20452;-73
2022/10/05 02:29:18;;;;;;;12.87;9.63;;;;;;;;;;5157447;27;20461;-73
2022/10/05 02:31:49;;;;;;;16.87;11.53;;;;;;;;;;5157586;27;20446;-73
2022/10/05 02:34:23;;;;;;;13.93;8.87;;;;;;;;;;5157329;27;20494;-73
2022/10/05 02:36:52;;;;;;;13.63;9.17;;;;;;;;;;5157327;27;20446;-73
2022/10/05 02:39:23;;;;;;;15.30;7.97;;;;;;;;;;5156821;27;20490;-73
2022/10/05 02:41:53;;;;;;;16.73;7.77;;;;;;;;;;5157179;27;20455;-73
2022/10/05 02:44:28;;;;;;;15.77;9.20;;;;;;;;;;5156548;27;20462;-73
2022/10/05 02:47:01;;;;;;;12.53;8.60;;;;;;;;;;5157218;27;20455;-73
2022/10/05 02:49:33;;;;;;;11.00;7.97;;;;;;;;;;5157021;27;20443;-73
2022/10/05 02:52:05;;;;;;;11.60;8.43;;;;;;;;;;5157065;27;20811;-73
2022/10/05 02:54:40;;;;;;;10.67;8.90;;;;;;;;;;5156525;27;20567;-73
2022/10/05 02:57:10;;;;;;;19.10;9.00;;;;;;;;;;5157133;27;20970;-73
2022/10/05 02:59:39;;;;;;;12.63;8.13;;;;;;;;;;5157010;27;20440;-73
2022/10/05 03:02:12;;;;;;;7.80;7.00;;;;;;;;;;5156834;27;20456;-73
2022/10/05 03:04:42;;;;;;;11.50;7.10;;;;;;;;;;5156443;27;20974;-73
2022/10/05 03:07:13;;;;;;;9.93;7.50;;;;;;;;;;5156815;27;20952;-72
2022/10/05 03:09:43;;;;;;;11.77;6.63;;;;;;;;;;5156657;27;20467;-72
2022/10/05 03:12:13;;;;;;;13.63;8.00;;;;;;;;;;5156530;27;20506;-71
2022/10/05 03:14:45;;;;;;;11.10;7.37;;;;;;;;;;5156491;27;20839;-72
2022/10/05 03:17:16;;;;;;;11.53;8.20;;;;;;;;;;5156717;27;20451;-72
2022/10/05 03:20:02;;;;;;;8.50;6.50;;;;;;;;;;5156206;27;20448;-72
2022/10/05 03:22:33;;;;;;;13.13;7.00;;;;;;;;;;5156430;27;20455;-72
2022/10/05 03:25:12;;;;;;;12.10;9.20;;;;;;;;;;5156199;27;20480;-72
2022/10/05 03:27:42;;;;;;;8.07;7.10;;;;;;;;;;5156355;27;20454;-72
2022/10/05 03:30:13;;;;;;;11.83;7.60;;;;;;;;;;5156312;27;20452;-72
2022/10/05 03:32:46;;;;;;;10.40;8.00;;;;;;;;;;5156256;27;20479;-72
2022/10/05 03:35:18;;;;;;;9.37;7.80;;;;;;;;;;5156109;27;20468;-72
2022/10/05 03:37:48;;;;;;;11.10;7.10;;;;;;;;;;5156508;27;20838;-72
2022/10/05 03:40:23;;;;;;;8.57;6.40;;;;;;;;;;5156464;27;20907;-72
2022/10/05 03:42:53;;;;;;;12.70;7.23;;;;;;;;;;5156312;27;20450;-72
2022/10/05 03:45:23;;;;;;;7.50;5.93;;;;;;;;;;5156136;27;20472;-72
2022/10/05 03:47:56;;;;;;;12.17;8.03;;;;;;;;;;5156434;27;20440;-72
2022/10/05 03:50:27;;;;;;;14.53;9.73;;;;;;;;;;5156207;27;20482;-72
2022/10/05 03:52:57;;;;;;;16.50;7.87;;;;;;;;;;5155199;27;20456;-72
2022/10/05 03:55:28;;;;;;;13.97;8.07;;;;;;;;;;5155817;27;20833;-72
2022/10/05 03:57:57;;;;;;;13.30;9.70;;;;;;;;;;5156125;27;20483;-72
2022/10/05 04:00:26;;;;;;;14.50;9.83;;;;;;;;;;5155939;27;20933;-72
2022/10/05 04:02:56;;;;;;;22.33;10.63;;;;;;;;;;5155955;27;20489;-72
2022/10/05 04:05:25;;;;;;;16.60;9.73;;;;;;;;;;5155713;27;20475;-72
2022/10/05 04:07:55;;;;;;;19.80;10.43;;;;;;;;;;5155846;27;20810;-72
2022/10/05 04:10:25;;;;;;;14.40;10.30;;;;;;;;;;5156280;27;20516;-72
2022/10/05 04:12:56;;;;;;;15.37;10.70;;;;;;;;;;5155632;27;20456;-72
2022/10/05 04:15:27;;;;;;;16.00;9.57;;;;;;;;;;5155516;27;20988;-72
2022/10/05 04:17:58;;;;;;;14.97;9.80;;;;;;;;;;5155828;27;20483;-72
2022/10/05 04:20:26;;;;;;;13.10;9.13;;;;;;;;;;5155150;27;20964;-72
2022/10/05 04:22:56;;;;;;;15.17;11.13;;;;;;;;;;5155719;27;20793;-72
2022/10/05 04:25:25;;;;;;;18.00;12.27;;;;;;;;;;5155612;27;20816;-72
2022/10/05 04:27:55;;;;;;;13.00;9.90;;;;;;;;;;5155429;27;20459;-72
2022/10/05 04:30:22;;;;;;;13.60;9.53;;;;;;;;;;5155509;27;20815;-72
2022/10/05 04:32:52;;;;;;;15.23;10.27;;;;;;;;;;5155317;27;20454;-72
2022/10/05 04:35:38;;;;;;;15.63;10.70;;;;;;;;;;5155051;27;20988;-72
2022/10/05 04:38:12;;;;;;;21.93;13.60;;;;;;;;;;5155099;27;20479;-72
2022/10/05 04:40:47;;;;;;;15.67;10.33;;;;;;;;;;5155245;27;20457;-72
2022/10/05 04:43:18;;;;;;;16.60;11.33;;;;;;;;;;5155023;27;20496;-72
2022/10/05 04:45:56;;;;;;;15.80;10.03;;;;;;;;;;5154819;27;20471;-72
2022/10/05 04:48:43;;;;;;;13.60;9.10;;;;;;;;;;5154940;27;20450;-72
2022/10/05 04:51:17;;;;;;;12.50;10.67;;;;;;;;;;5155189;27;20503;-72
2022/10/05 04:53:50;;;;;;;18.60;11.30;;;;;;;;;;5154754;27;20450;-72
2022/10/05 04:56:20;;;;;;;12.30;9.57;;;;;;;;;;5155172;27;20500;-72
2022/10/05 04:58:58;;;;;;;15.33;10.10;;;;;;;;;;5155030;27;20475;-73
2022/10/05 05:01:35;;;;;;;11.53;9.70;;;;;;;;;;5155206;27;20908;-73
2022/10/05 05:04:09;;;;;;;14.27;10.23;;;;;;;;;;5154530;27;20815;-72
2022/10/05 05:06:40;;;;;;;15.30;10.97;;;;;;;;;;5155103;27;20790;-73
2022/10/05 05:09:27;;;;;;;12.40;10.40;;;;;;;;;;5155061;27;20815;-72
2022/10/05 05:12:02;;;;;;;18.13;10.43;;;;;;;;;;5155023;27;20456;-73
2022/10/05 05:14:42;;;;;;;17.00;11.43;;;;;;;;;;5154623;27;20851;-72
2022/10/05 05:17:15;;;;;;;20.63;11.70;;;;;;;;;;5155212;27;20435;-72
2022/10/05 05:19:49;;;;;;;19.40;13.90;;;;;;;;;;5154443;27;20464;-72
2022/10/05 05:22:19;;;;;;;15.83;11.20;;;;;;;;;;5155088;27;20443;-72
2022/10/05 05:24:54;;;;;;;13.87;10.03;;;;;;;;;;5155064;27;20471;-73
2022/10/05 05:27:29;;;;;;;13.83;9.90;;;;;;;;;;5154627;27;20822;-73
2022/10/05 05:30:02;;;;;;;15.60;10.47;;;;;;;;;;5154848;27;20427;-73
2022/10/05 05:32:35;;;;;;;14.90;10.70;;;;;;;;;;5154870;27;20443;-72
2022/10/05 05:35:09;;;;;;;13.23;10.17;;;;;;;;;;5154345;27;20467;-73
2022/10/05 05:37:39;;;;;;;63.60;46.47;;;;;;;;;;5154949;27;20424;-73
2022/10/05 05:40:15;;;;;;;17.93;14.07;;;;;;;;;;5154927;27;20478;-73
2022/10/05 05:42:49;;;;;;;13.73;10.70;;;;;;;;;;5154202;27;20462;-72
2022/10/05 05:45:18;;;;;;;15.30;11.03;;;;;;;;;;5154524;27;20489;-72
2022/10/05 05:47:50;;;;;;;16.00;10.60;;;;;;;;;;5154380;27;20824;-73
2022/10/05 05:50:29;;;;;;;17.33;14.30;;;;;;;;;;5154526;27;20535;-73
2022/10/05 05:52:59;;;;;;;15.90;13.00;;;;;;;;;;5154731;27;20774;-73
2022/10/05 05:55:30;;;;;;;12.90;10.90;;;;;;;;;;5154077;27;20464;-73
2022/10/05 05:57:58;;;;;;;17.60;12.50;;;;;;;;;;5154770;27;20436;-73
2022/10/05 06:00:29;;;;;;;13.30;9.97;;;;;;;;;;5154479;27;20493;-73
2022/10/05 06:03:01;;;;;;;11.73;8.90;;;;;;;;;;5154562;27;20456;-73
2022/10/05 06:05:30;;;;;;;10.80;8.67;;;;;;;;;;5154192;27;20464;-72
2022/10/05 06:07:59;;;;;;;13.40;7.93;;;;;;;;;;5154573;27;20447;-72
2022/10/05 06:10:31;;;;;;;9.20;8.07;;;;;;;;;;5154242;27;20450;-72
2022/10/05 06:13:00;;;;;;;10.70;8.00;;;;;;;;;;5154256;27;20438;-72
2022/10/05 06:15:31;;;;;;;9.97;7.27;;;;;;;;;;5155533;27;20463;-72
2022/10/05 06:17:59;;;;;;;6.77;5.50;;;;;;;;;;5158019;27;20434;-73
2022/10/05 06:20:29;;;;;;;7.90;4.67;;;;;;;;;;5157734;27;20506;-73
2022/10/05 06:22:58;;;;;;;4.93;3.63;;;;;;;;;;5158311;27;20431;-73
2022/10/05 06:25:28;;;;;;;5.20;4.57;;;;;;;;;;5157630;27;20472;-73
2022/10/05 06:28:03;;;;;;;5.90;4.87;;;;;;;;;;5158016;27;20967;-73
2022/10/05 06:30:34;;;;;;;5.10;4.30;;;;;;;;;;5157777;27;20450;-73
2022/10/05 06:33:05;;;;;;;5.90;4.23;;;;;;;;;;5157949;27;20447;-73
2022/10/05 06:35:39;;;;;;;4.60;4.20;;;;;;;;;;5157435;27;21019;-73
2022/10/05 06:38:15;;;;;;;3.80;3.47;;;;;;;;;;5157893;27;20823;-73
2022/10/05 06:40:54;;;;;;;4.50;4.10;;;;;;;;;;5157948;27;20892;-73
2022/10/05 06:43:35;;;;;;;4.53;3.97;;;;;;;;;;5157489;27;20775;-73
2022/10/05 06:46:07;;;;;;;10.20;5.07;;;;;;;;;;5157627;27;20459;-73
2022/10/05 06:48:44;;;;;;;5.47;4.47;;;;;;;;;;5157866;27;20912;-73
2022/10/05 06:51:14;;;;;;;6.90;4.00;;;;;;;;;;5157336;27;20451;-73
2022/10/05 06:53:44;;;;;;;5.80;3.60;;;;;;;;;;5157446;27;20936;-73
2022/10/05 06:56:15;;;;;;;5.07;3.77;;;;;;;;;;5157390;27;20459;-73
2022/10/05 06:58:48;;;;;;;6.23;4.13;;;;;;;;;;5157468;27;20475;-73
2022/10/05 07:01:18;;;;;;;4.50;4.10;;;;;;;;;;5157659;27;20432;-73
2022/10/05 07:03:53;;;;;;;4.83;4.33;;;;;;;;;;5156982;27;20475;-73
2022/10/05 07:06:22;;;;;;;5.33;4.83;;;;;;;;;;5157139;27;20475;-73
2022/10/05 07:08:59;;;;;;;5.70;4.40;;;;;;;;;;5157295;27;20444;-73
2022/10/05 07:11:33;;;;;;;5.73;4.30;;;;;;;;;;5157004;27;20834;-73
2022/10/05 07:14:08;;;;;;;5.23;4.73;;;;;;;;;;5156865;27;20432;-73
2022/10/05 07:16:38;;;;;;;15.23;3.90;;;;;;;;;;5156944;27;20451;-73
2022/10/05 07:19:11;;;;;;;4.17;3.87;;;;;;;;;;5156749;27;20582;-72
2022/10/05 07:21:42;;;;;;;6.00;4.13;;;;;;;;;;5156870;27;20452;-73
2022/10/05 07:24:15;;;;;;;7.37;4.03;;;;;;;;;;5156464;27;20443;-73
2022/10/05 07:26:44;;;;;;;5.53;3.80;;;;;;;;;;5156483;27;20444;-73
2022/10/05 07:29:24;;;;;;;4.87;3.50;;;;;;;;;;5156950;27;20811;-73
2022/10/05 07:31:57;;;;;;;8.40;4.97;;;;;;;;;;5156717;27;20451;-73
2022/10/05 07:34:28;;;;;;;7.30;6.40;;;;;;;;;;5156234;27;20458;-73
2022/10/05 07:39:46;;;;;;;4.63;2.93;;;;;;;;;;5156417;27;20532;-73
2022/10/05 07:42:19;;;;;;;4.60;4.10;;;;;;;;;;5156820;27;20448;-73
2022/10/05 07:44:51;;;;;;;3.77;3.37;;;;;;;;;;5156076;27;20472;-73
2022/10/05 07:47:24;;;;;;;5.30;3.53;;;;;;;;;;5156442;27;20440;-73
2022/10/05 07:49:55;;;;;;;3.97;3.60;;;;;;;;;;5156524;27;20890;-73
2022/10/05 07:52:25;;;;;;;6.40;3.30;;;;;;;;;;5156370;27;20447;-73
2022/10/05 07:54:57;;;;;;;5.70;3.30;;;;;;;;;;5156184;27;20463;-73
2022/10/05 07:57:26;;;;;;;3.23;2.93;;;;;;;;;;5156203;27;20452;-73
2022/10/05 07:59:57;;;;;;;3.13;2.80;;;;;;;;;;5156025;27;20483;-73
2022/10/05 08:02:27;;;;;;;5.33;3.07;;;;;;;;;;5155924;27;20454;-73
2022/10/05 08:04:59;;;;;;;4.73;2.33;;;;;;;;;;5155744;27;20844;-73
2022/10/05 08:07:28;;;;;;;6.20;3.10;;;;;;;;;;5156133;27;20475;-73
2022/10/05 08:09:56;;;;;;;2.97;2.57;;;;;;;;;;5155798;27;20454;-73
2022/10/05 08:12:31;;;;;;;6.03;2.60;;;;;;;;;;5155745;27;20467;-73
2022/10/05 08:15:03;;;;;;;8.73;2.77;;;;;;;;;;5155507;27;20474;-73
2022/10/05 08:17:34;;;;;;;6.30;2.40;;;;;;;;;;5155821;27;21012;-72
2022/10/05 08:20:06;;;;;;;4.20;3.10;;;;;;;;;;5155700;27;20472;-72
2022/10/05 08:22:39;;;;;;;2.70;2.30;;;;;;;;;;5155662;27;20484;-73
2022/10/05 08:25:10;;;;;;;5.47;4.17;;;;;;;;;;5155563;27;20812;-73
2022/10/05 08:27:42;;;;;;;3.20;2.20;;;;;;;;;;5155532;27;20466;-73
2022/10/05 08:30:12;;;;;;;2.53;2.33;;;;;;;;;;5155541;27;20450;-73
2022/10/05 08:32:41;;;;;;;2.70;2.50;;;;;;;;;;5155442;27;20896;-73
2022/10/05 08:35:16;;;;;;;8.13;2.23;;;;;;;;;;5155153;27;20468;-73
2022/10/05 08:37:44;;;;;;;3.30;2.40;;;;;;;;;;5154735;27;20806;-73
2022/10/05 08:40:25;;;;;;;4.33;2.70;;;;;;;;;;5155272;27;20574;-73
2022/10/05 08:42:59;;;;;;;2.47;2.03;;;;;;;;;;5154950;27;20447;-73
2022/10/05 08:45:45;;;;;;;3.00;1.93;;;;;;;;;;5155068;27;20464;-73
2022/10/05 08:48:27;;;;;;;3.13;2.00;;;;;;;;;;5155072;27;20447;-73
2022/10/05 08:51:21;;;;;;;3.33;2.20;;;;;;;;;;5155122;27;20439;-73
2022/10/05 08:53:59;;;;;;;2.70;1.87;;;;;;;;;;5106555;27;20948;-73
2022/10/05 08:56:37;;;;;;;4.53;2.07;;;;;;;;;;5154954;27;20476;-73
2022/10/05 08:59:20;;;;;;;3.47;1.93;;;;;;;;;;5155351;27;20438;-72
2022/10/05 09:01:59;;;;;;;2.00;1.80;;;;;;;;;;5155070;27;20893;-73
2022/10/05 09:04:32;;;;;;;2.30;1.93;;;;;;;;;;5154597;27;20936;-73
2022/10/05 09:07:15;;;;;;;4.03;1.83;;;;;;;;;;5155065;27;20470;-73
2022/10/05 09:10:09;;;;;;;3.83;3.40;;;;;;;;;;5155230;27;20473;-73
2022/10/05 09:12:43;;;;;;;5.07;3.10;;;;;;;;;;5154908;27;20460;-73
2022/10/05 09:15:16;;;;;;;3.37;2.23;;;;;;;;;;5154498;27;20554;-73
2022/10/05 09:18:06;;;;;;;4.33;2.23;;;;;;;;;;5155151;27;20443;-73
2022/10/05 09:20:42;;;;;;;3.27;1.80;;;;;;;;;;5154436;27;20574;-73
2022/10/05 09:23:13;;;;;;;2.47;1.77;;;;;;;;;;5155157;27;20424;-73
2022/10/05 09:25:53;;;;;;;5.13;2.57;;;;;;;;;;5154821;27;20472;-73
2022/10/05 09:28:32;;;;;;;4.43;1.60;;;;;;;;;;5154899;27;20432;-73
2022/10/05 09:31:11;;;;;;;2.97;1.90;;;;;;;;;;5154597;27;20480;-73
2022/10/05 09:34:10;;;;;;;5.87;3.00;;;;;;;;;;5154658;27;20936;-73
2022/10/05 09:36:59;;;;;;;2.60;1.97;;;;;;;;;;5154631;27;20531;-73
2022/10/05 09:39:33;;;;;;;2.40;1.60;;;;;;;;;;5154288;27;20431;-73
2022/10/05 09:42:11;;;;;;;7.13;2.20;;;;;;;;;;5154057;27;20436;-73
2022/10/05 09:45:06;;;;;;;3.13;1.70;;;;;;;;;;5153603;27;20467;-73
2022/10/05 09:47:52;;;;;;;2.13;1.83;;;;;;;;;;5154044;27;20435;-73
2022/10/05 09:50:46;;;;;;;2.53;2.00;;;;;;;;;;5157518;27;20893;-73
2022/10/05 09:53:44;;;;;;;2.40;1.80;;;;;;;;;;5109767;27;20829;-73
2022/10/05 09:56:28;;;;;;;5.00;3.50;;;;;;;;;;5158369;27;20471;-73
2022/10/05 09:59:14;;;;;;;3.90;2.90;;;;;;;;;;5157956;27;20457;-73
2022/10/05 10:01:50;;;;;;;2.97;2.40;;;;;;;;;;5158033;27;20479;-73
2022/10/05 10:04:28;;;;;;;5.90;3.07;;;;;;;;;;5158089;27;20772;-73
2022/10/05 10:07:15;;;;;;;6.43;3.27;;;;;;;;;;5158082;27;20987;-73
2022/10/05 10:09:50;;;;;;;10.80;2.87;;;;;;;;;;5157640;27;20427;-73
2022/10/05 10:12:25;;;;;;;3.00;2.70;;;;;;;;;;5157538;27;20463;-73
2022/10/05 10:15:07;;;;;;;7.77;2.70;;;;;;;;;;5157419;27;20654;-73
2022/10/05 10:17:44;;;;;;;6.57;2.47;;;;;;;;;;5157480;27;20454;-73
2022/10/05 10:20:18;;;;;;;4.80;1.93;;;;;;;;;;5156965;27;20486;-73
2022/10/05 10:22:54;;;;;;;2.97;2.00;;;;;;;;;;5157827;27;21245;-73
2022/10/05 10:25:30;;;;;;;2.37;1.80;;;;;;;;;;5157391;27;20470;-73
2022/10/05 10:28:26;;;;;;;2.83;2.40;;;;;;;;;;5157953;27;20435;-73
2022/10/05 10:31:04;;;;;;;5.93;2.10;;;;;;;;;;5157942;27;20420;-73
2022/10/05 10:33:46;;;;;;;3.90;1.63;;;;;;;;;;5157247;27;20447;-73
2022/10/05 10:36:17;;;;;;;4.60;2.13;;;;;;;;;;5157302;27;20473;-73
2022/10/05 10:38:52;;;;;;;3.13;1.87;;;;;;;;;;5157097;27;20453;-73
2022/10/05 10:41:34;;;;;;;2.60;1.83;;;;;;;;;;5157070;27;20482;-73
2022/10/05 10:44:18;;;;;;;4.87;1.60;;;;;;;;;;5157003;27;20452;-73
2022/10/05 10:46:51;;;;;;;5.50;1.83;;;;;;;;;;5156255;27;20570;-73
2022/10/05 10:49:26;;;;;;;5.20;2.10;;;;;;;;;;5157284;27;20436;-73
2022/10/05 10:52:00;;;;;;;3.90;1.90;;;;;;;;;;5157277;27;20798;-73
2022/10/05 10:54:31;;;;;;;3.00;1.80;;;;;;;;;;5156929;27;21006;-73
2022/10/05 10:57:04;;;;;;;5.73;1.80;;;;;;;;;;5156786;27;20455;-73
2022/10/05 10:59:43;;;;;;;4.73;2.00;;;;;;;;;;5156959;27;20448;-73
2022/10/05 11:02:36;;;;;;;8.83;2.30;;;;;;;;;;5156144;27;20442;-74
2022/10/05 11:05:15;;;;;;;5.50;2.10;;;;;;;;;;5156796;27;20976;-73
2022/10/05 11:08:01;;;;;;;2.10;1.80;;;;;;;;;;5156582;27;20439;-73
2022/10/05 11:10:50;;;;;;;4.13;2.50;;;;;;;;;;5156596;27;20420;-74
2022/10/05 11:13:24;;;;;;;2.53;2.20;;;;;;;;;;5156831;27;20446;-74
2022/10/05 11:16:12;;;;;;;4.73;2.30;;;;;;;;;;5156270;27;20471;-73
2022/10/05 11:18:54;;;;;;;4.00;2.17;;;;;;;;;;5156576;27;20434;-73
2022/10/05 11:21:29;;;;;;;5.97;2.17;;;;;;;;;;5153223;27;20487;-74
2022/10/05 11:24:14;;;;;;;2.53;2.13;;;;;;;;;;5156098;27;20435;-73
2022/10/05 11:26:49;;;;;;;2.13;1.60;;;;;;;;;;5156082;27;20451;-74
2022/10/05 11:29:25;;;;;;;9.73;2.73;;;;;;;;;;5156593;27;20442;-73
2022/10/05 11:32:04;;;;;;;4.63;2.30;;;;;;;;;;5156638;27;20867;-73
2022/10/05 11:34:48;;;;;;;4.43;2.33;;;;;;;;;;5156210;27;20474;-73
2022/10/05 11:37:35;;;;;;;6.23;1.90;;;;;;;;;;5156188;27;20451;-74
2022/10/05 11:40:19;;;;;;;4.47;1.70;;;;;;;;;;5155978;27;20424;-74
2022/10/05 11:43:20;;;;;;;5.10;2.13;;;;;;;;;;5155801;27;20478;-74
2022/10/05 11:45:56;;;;;;;3.00;1.87;;;;;;;;;;5071594;28;20468;-74
2022/10/05 11:48:38;;;;;;;2.80;1.90;;;;;;;;;;5071953;28;20442;-74
2022/10/05 11:51:18;;;;;;;4.97;1.90;;;;;;;;;;5123153;27;20778;-74
2022/10/05 11:53:48;;;;;;;1.77;1.63;;;;;;;;;;5155479;27;20435;-74
2022/10/05 11:56:22;;;;;;;3.47;1.60;;;;;;;;;;5156128;27;20474;-74
2022/10/05 11:58:52;;;;;;;8.13;1.47;;;;;;;;;;5155767;27;20432;-74
2022/10/05 12:01:26;;;;;;;1.77;1.67;;;;;;;;;;5155854;27;20507;-74
2022/10/05 12:03:57;;;;;;;3.53;1.93;;;;;;;;;;5155532;27;20447;-74
2022/10/05 12:06:33;;;;;;;4.73;1.50;;;;;;;;;;5155394;27;20468;-74
2022/10/05 12:09:07;;;;;;;3.93;1.90;;;;;;;;;;5155547;27;20440;-74
2022/10/05 12:11:43;;;;;;;3.63;1.80;;;;;;;;;;5155372;27;20466;-74
2022/10/05 12:14:17;;;;;;;4.60;1.97;;;;;;;;;;5154576;27;20905;-74
2022/10/05 12:16:47;;;;;;;3.23;1.93;;;;;;;;;;5155675;27;20547;-74
2022/10/05 12:19:17;;;;;;;1.90;1.70;;;;;;;;;;5155220;27;20451;-74
2022/10/05 12:21:47;;;;;;;9.23;1.80;;;;;;;;;;5155225;27;20497;-74
2022/10/05 12:24:17;;;;;;;2.90;2.10;;;;;;;;;;5155262;27;20439;-74
2022/10/05 12:26:48;;;;;;;3.93;2.13;;;;;;;;;;5155296;27;20916;-74
2022/10/05 12:29:20;;;;;;;2.73;2.17;;;;;;;;;;5155338;27;20909;-74
2022/10/05 12:31:52;;;;;;;3.27;2.10;;;;;;;;;;5155207;27;20424;-74
2022/10/05 12:34:26;;;;;;;2.50;1.80;;;;;;;;;;5154750;27;20447;-74
2022/10/05 12:36:56;;;;;;;5.40;1.90;;;;;;;;;;5154958;27;20455;-74
2022/10/05 12:39:25;;;;;;;3.40;1.70;;;;;;;;;;5155042;27;20448;-74
2022/10/05 12:42:01;;;;;;;4.43;2.10;;;;;;;;;;5154633;27;20988;-74
2022/10/05 12:44:41;;;;;;;2.90;1.63;;;;;;;;;;5154553;27;20505;-74
2022/10/05 12:47:13;;;;;;;2.73;1.50;;;;;;;;;;5155050;27;20919;-74
2022/10/05 12:49:49;;;;;;;1.93;1.70;;;;;;;;;;5154985;27;20432;-74
2022/10/05 12:52:24;;;;;;;3.07;1.53;;;;;;;;;;5154712;27;20424;-74
2022/10/05 12:54:56;;;;;;;2.13;1.80;;;;;;;;;;5154736;27;20837;-74
2022/10/05 12:57:29;;;;;;;2.00;1.60;;;;;;;;;;5154869;27;20447;-74
2022/10/05 13:00:01;;;;;;;2.70;1.60;;;;;;;;;;5154779;27;20443;-74
2022/10/05 13:02:32;;;;;;;1.93;1.50;;;;;;;;;;5154316;27;21000;-74
2022/10/05 13:05:03;;;;;;;2.23;1.73;;;;;;;;;;5154554;27;20475;-74
2022/10/05 13:07:48;;;;;;;11.87;2.00;;;;;;;;;;5154914;27;20440;-74
2022/10/05 13:10:23;;;;;;;1.87;1.60;;;;;;;;;;5154945;27;20435;-74
2022/10/05 13:12:58;;;;;;;4.73;2.13;;;;;;;;;;5154653;27;20459;-74
2022/10/05 13:15:28;;;;;;;10.10;2.00;;;;;;;;;;5154712;27;20467;-74
2022/10/05 13:18:00;;;;;;;3.77;1.73;;;;;;;;;;5155581;27;20936;-74
2022/10/05 13:20:29;;;;;;;2.83;1.80;;;;;;;;;;5154150;27;20442;-74
2022/10/05 13:23:01;;;;;;;3.90;1.80;;;;;;;;;;5154569;27;20444;-74
2022/10/05 13:25:31;;;;;;;5.60;4.83;;;;;;;;;;5153615;27;20474;-74
2022/10/05 13:28:14;;;;;;;2.90;2.20;;;;;;;;;;5154717;27;20443;-74
2022/10/05 13:30:44;;;;;;;5.03;2.30;;;;;;;;;;5154523;27;20836;-74
2022/10/05 13:33:16;;;;;;;31.73;3.40;;;;;;;;;;5153496;27;20467;-74
2022/10/05 13:35:46;;;;;;;4.73;2.83;;;;;;;;;;5153817;27;20472;-74
2022/10/05 13:38:19;;;;;;;4.60;2.80;;;;;;;;;;5153715;27;20451;-74
2022/10/05 13:40:52;;;;;;;4.10;3.00;;;;;;;;;;5153019;27;20474;-74
2022/10/05 13:43:23;;;;;;;9.23;3.47;;;;;;;;;;5153811;27;20479;-74
2022/10/05 13:45:54;;;;;;;4.50;3.60;;;;;;;;;;5152960;27;20463;-74
2022/10/05 13:48:28;;;;;;;4.53;3.00;;;;;;;;;;5153596;27;20436;-74
2022/10/05 13:51:00;;;;;;;6.80;3.07;;;;;;;;;;5154252;27;20436;-74
2022/10/05 13:53:31;;;;;;;4.80;3.10;;;;;;;;;;5153791;27;20462;-74
2022/10/05 13:56:00;;;;;;;8.43;2.83;;;;;;;;;;5153946;27;20482;-74
2022/10/05 13:58:33;;;;;;;5.00;3.00;;;;;;;;;;5154162;27;20448;-74
2022/10/05 14:01:02;;;;;;;4.30;3.20;;;;;;;;;;5153882;27;20524;-74
2022/10/05 14:03:32;;;;;;;5.70;3.23;;;;;;;;;;5153996;27;20454;-73
2022/10/05 14:06:00;;;;;;;5.73;4.30;;;;;;;;;;5154084;27;20547;-74
2022/10/05 14:08:28;;;;;;;5.33;4.50;;;;;;;;;;5153997;27;20834;-74
2022/10/05 14:10:57;;;;;;;4.90;4.30;;;;;;;;;;5153916;27;20980;-74
2022/10/05 14:13:26;;;;;;;4.93;4.20;;;;;;;;;;5154083;27;20488;-74
2022/10/05 14:16:03;;;;;;;7.10;3.73;;;;;;;;;;5153720;27;20471;-74
2022/10/05 14:18:31;;;;;;;6.43;4.30;;;;;;;;;;5153769;27;20473;-74
2022/10/05 14:20:59;;;;;;;5.27;3.77;;;;;;;;;;5153344;27;20452;-74
2022/10/05 14:23:26;;;;;;;6.23;5.13;;;;;;;;;;5153546;27;20455;-73
2022/10/05 14:25:54;;;;;;;6.00;4.20;;;;;;;;;;5154086;27;20983;-74
2022/10/05 14:28:27;;;;;;;6.60;4.10;;;;;;;;;;5154046;27;20448;-74
2022/10/05 14:30:58;;;;;;;6.37;3.60;;;;;;;;;;5153980;27;20809;-74
2022/10/05 14:33:27;;;;;;;5.63;3.70;;;;;;;;;;5153461;27;20567;-74
2022/10/05 14:35:55;;;;;;;4.00;3.50;;;;;;;;;;5154297;27;20994;-74
2022/10/05 14:38:25;;;;;;;15.07;4.07;;;;;;;;;;5157195;27;20537;-74
2022/10/05 14:41:05;;;;;;;6.03;4.30;;;;;;;;;;5157026;27;20550;-74
2022/10/05 14:43:33;;;;;;;6.27;3.67;;;;;;;;;;5156698;27;20485;-74
2022/10/05 14:46:03;;;;;;;9.63;5.37;;;;;;;;;;5157248;27;20472;-74
2022/10/05 14:48:38;;;;;;;5.80;4.40;;;;;;;;;;5157022;27;20467;-74
2022/10/05 14:51:10;;;;;;;6.80;4.13;;;;;;;;;;5157243;27;20443;-74
2022/10/05 14:53:38;;;;;;;4.63;3.90;;;;;;;;;;5156860;27;20823;-74
2022/10/05 14:56:21;;;;;;;7.90;5.13;;;;;;;;;;5156799;27;20814;-74
2022/10/05 14:59:02;;;;;;;10.37;6.03;;;;;;;;;;5156827;27;20522;-74
2022/10/05 15:01:33;;;;;;;8.50;5.37;;;;;;;;;;5156592;27;20531;-74
2022/10/05 15:04:08;;;;;;;8.10;4.67;;;;;;;;;;5156589;27;20485;-74
2022/10/05 15:06:37;;;;;;;10.37;6.33;;;;;;;;;;5156710;27;20455;-74
2022/10/05 15:09:17;;;;;;;27.47;23.70;;;;;;;;;;5156641;27;20905;-74
2022/10/05 15:11:49;;;;;;;11.60;7.33;;;;;;;;;;5156333;27;20462;-74
2022/10/05 15:14:18;;;;;;;12.10;7.43;;;;;;;;;;5156353;27;20462;-74
2022/10/05 15:16:48;;;;;;;9.73;7.20;;;;;;;;;;5156412;27;20455;-74